sensor_id;sensor_type;location;lat;lon;timestamp;P1;durP1;ratioP1;P2;durP2;ratioP2
1360;SDS011;674;45.552;-122.600;2023-02-11T00:01:35;3.93;;;1.90;;
1360;SDS011;674;45.552;-122.600;2023-02-11T00:04:04;4.53;;;2.60;;
1360;SDS011;674;45.552;-122.600;2023-02-11T00:06:34;4.50;;;2.10;;
1360;SDS011;674;45.552;-122.600;2023-02-11T00:09:03;5.00;;;2.20;;
1360;SDS011;674;45.552;-122.600;2023-02-11T00:11:32;4.23;;;2.27;;
1360;SDS011;674;45.552;-122.600;2023-02-11T00:14:02;3.83;;;2.03;;
1360;SDS011;674;45.552;-122.600;2023-02-11T00:16:32;3.77;;;2.10;;
1360;SDS011;674;45.552;-122.600;2023-02-11T00:19:01;4.93;;;2.50;;
1360;SDS011;674;45.552;-122.600;2023-02-11T00:21:32;5.53;;;2.10;;
1360;SDS011;674;45.552;-122.600;2023-02-11T00:24:01;4.63;;;1.90;;
1360;SDS011;674;45.552;-122.600;2023-02-11T00:26:31;4.10;;;1.73;;
1360;SDS011;674;45.552;-122.600;2023-02-11T00:29:00;3.47;;;1.27;;
1360;SDS011;674;45.552;-122.600;2023-02-11T00:31:30;2.83;;;1.30;;
1360;SDS011;674;45.552;-122.600;2023-02-11T00:33:59;2.33;;;0.93;;
1360;SDS011;674;45.552;-122.600;2023-02-11T00:36:28;3.10;;;1.10;;
1360;SDS011;674;45.552;-122.600;2023-02-11T00:38:57;2.20;;;1.20;;
1360;SDS011;674;45.552;-122.600;2023-02-11T00:41:25;3.60;;;1.40;;
1360;SDS011;674;45.552;-122.600;2023-02-11T00:43:54;3.57;;;1.50;;
1360;SDS011;674;45.552;-122.600;2023-02-11T00:46:22;2.67;;;1.40;;
1360;SDS011;674;45.552;-122.600;2023-02-11T00:48:51;2.80;;;1.30;;
1360;SDS011;674;45.552;-122.600;2023-02-11T00:51:24;2.33;;;1.27;;
1360;SDS011;674;45.552;-122.600;2023-02-11T00:53:54;2.70;;;1.50;;
1360;SDS011;674;45.552;-122.600;2023-02-11T00:56:22;3.10;;;1.20;;
1360;SDS011;674;45.552;-122.600;2023-02-11T00:58:51;3.20;;;1.20;;
1360;SDS011;674;45.552;-122.600;2023-02-11T01:01:20;3.60;;;1.77;;
1360;SDS011;674;45.552;-122.600;2023-02-11T01:03:49;2.80;;;1.53;;
1360;SDS011;674;45.552;-122.600;2023-02-11T01:06:17;5.13;;;2.77;;
1360;SDS011;674;45.552;-122.600;2023-02-11T01:08:46;4.37;;;3.13;;
1360;SDS011;674;45.552;-122.600;2023-02-11T01:11:16;5.30;;;3.07;;
1360;SDS011;674;45.552;-122.600;2023-02-11T01:13:46;6.20;;;3.40;;
1360;SDS011;674;45.552;-122.600;2023-02-11T01:16:16;6.20;;;3.90;;
1360;SDS011;674;45.552;-122.600;2023-02-11T01:18:45;5.77;;;4.27;;
1360;SDS011;674;45.552;-122.600;2023-02-11T01:21:14;6.03;;;3.70;;
1360;SDS011;674;45.552;-122.600;2023-02-11T01:23:43;7.50;;;4.00;;
1360;SDS011;674;45.552;-122.600;2023-02-11T01:26:11;5.40;;;3.83;;
1360;SDS011;674;45.552;-122.600;2023-02-11T01:28:40;6.40;;;4.50;;
1360;SDS011;674;45.552;-122.600;2023-02-11T01:31:09;5.00;;;3.33;;
1360;SDS011;674;45.552;-122.600;2023-02-11T01:33:37;5.40;;;3.13;;
1360;SDS011;674;45.552;-122.600;2023-02-11T01:36:06;4.87;;;3.40;;
1360;SDS011;674;45.552;-122.600;2023-02-11T01:38:35;6.13;;;3.50;;
1360;SDS011;674;45.552;-122.600;2023-02-11T01:41:07;5.10;;;2.90;;
1360;SDS011;674;45.552;-122.600;2023-02-11T01:43:42;6.10;;;3.00;;
1360;SDS011;674;45.552;-122.600;2023-02-11T01:51:42;4.90;;;3.83;;
1360;SDS011;674;45.552;-122.600;2023-02-11T01:54:21;4.93;;;2.83;;
1360;SDS011;674;45.552;-122.600;2023-02-11T01:57:12;5.00;;;3.13;;
1360;SDS011;674;45.552;-122.600;2023-02-11T02:10:47;5.97;;;3.27;;
1360;SDS011;674;45.552;-122.600;2023-02-11T02:13:20;7.50;;;3.63;;
1360;SDS011;674;45.552;-122.600;2023-02-11T02:27:17;5.07;;;2.37;;
1360;SDS011;674;45.552;-122.600;2023-02-11T02:30:21;4.97;;;2.80;;
1360;SDS011;674;45.552;-122.600;2023-02-11T02:36:01;6.27;;;2.60;;
1360;SDS011;674;45.552;-122.600;2023-02-11T02:38:46;4.63;;;2.63;;
1360;SDS011;674;45.552;-122.600;2023-02-11T02:41:34;6.90;;;3.00;;
1360;SDS011;674;45.552;-122.600;2023-02-11T02:44:04;5.67;;;2.40;;
1360;SDS011;674;45.552;-122.600;2023-02-11T02:46:34;5.87;;;2.10;;
1360;SDS011;674;45.552;-122.600;2023-02-11T02:49:05;4.17;;;2.47;;
1360;SDS011;674;45.552;-122.600;2023-02-11T03:01:01;5.50;;;2.40;;
1360;SDS011;674;45.552;-122.600;2023-02-11T03:03:40;5.27;;;3.27;;
1360;SDS011;674;45.552;-122.600;2023-02-11T03:06:30;11.47;;;3.00;;
1360;SDS011;674;45.552;-122.600;2023-02-11T03:09:05;11.10;;;3.80;;
1360;SDS011;674;45.552;-122.600;2023-02-11T03:11:54;6.37;;;2.83;;
1360;SDS011;674;45.552;-122.600;2023-02-11T03:14:23;9.40;;;6.57;;
1360;SDS011;674;45.552;-122.600;2023-02-11T03:16:54;12.10;;;4.00;;
1360;SDS011;674;45.552;-122.600;2023-02-11T03:19:31;9.30;;;4.67;;
1360;SDS011;674;45.552;-122.600;2023-02-11T03:22:09;11.10;;;5.20;;
1360;SDS011;674;45.552;-122.600;2023-02-11T03:24:43;9.30;;;5.03;;
1360;SDS011;674;45.552;-122.600;2023-02-11T03:27:20;11.13;;;5.23;;
1360;SDS011;674;45.552;-122.600;2023-02-11T03:30:15;14.50;;;5.90;;
1360;SDS011;674;45.552;-122.600;2023-02-11T03:32:55;20.00;;;6.07;;
1360;SDS011;674;45.552;-122.600;2023-02-11T03:35:44;13.00;;;6.80;;
1360;SDS011;674;45.552;-122.600;2023-02-11T03:38:22;11.80;;;4.90;;
1360;SDS011;674;45.552;-122.600;2023-02-11T03:41:04;11.87;;;5.93;;
1360;SDS011;674;45.552;-122.600;2023-02-11T03:43:36;16.83;;;5.30;;
1360;SDS011;674;45.552;-122.600;2023-02-11T03:46:09;15.20;;;6.20;;
1360;SDS011;674;45.552;-122.600;2023-02-11T03:48:43;18.90;;;6.27;;
1360;SDS011;674;45.552;-122.600;2023-02-11T03:51:15;11.67;;;5.77;;
1360;SDS011;674;45.552;-122.600;2023-02-11T03:53:46;13.20;;;6.60;;
1360;SDS011;674;45.552;-122.600;2023-02-11T03:56:19;12.57;;;5.77;;
1360;SDS011;674;45.552;-122.600;2023-02-11T03:58:52;15.40;;;6.40;;
1360;SDS011;674;45.552;-122.600;2023-02-11T04:01:21;13.20;;;6.40;;
1360;SDS011;674;45.552;-122.600;2023-02-11T04:03:50;14.33;;;5.90;;
1360;SDS011;674;45.552;-122.600;2023-02-11T04:06:18;14.03;;;6.03;;
1360;SDS011;674;45.552;-122.600;2023-02-11T04:08:47;19.20;;;6.07;;
1360;SDS011;674;45.552;-122.600;2023-02-11T04:11:15;16.57;;;6.63;;
1360;SDS011;674;45.552;-122.600;2023-02-11T04:13:44;17.60;;;6.17;;
1360;SDS011;674;45.552;-122.600;2023-02-11T04:16:13;14.13;;;5.40;;
1360;SDS011;674;45.552;-122.600;2023-02-11T04:18:41;15.00;;;5.57;;
1360;SDS011;674;45.552;-122.600;2023-02-11T04:21:10;11.80;;;5.77;;
1360;SDS011;674;45.552;-122.600;2023-02-11T04:23:39;16.30;;;6.07;;
1360;SDS011;674;45.552;-122.600;2023-02-11T04:26:07;14.87;;;5.80;;
1360;SDS011;674;45.552;-122.600;2023-02-11T04:28:36;15.03;;;6.30;;
1360;SDS011;674;45.552;-122.600;2023-02-11T04:31:04;25.33;;;13.97;;
1360;SDS011;674;45.552;-122.600;2023-02-11T04:33:33;18.47;;;8.50;;
1360;SDS011;674;45.552;-122.600;2023-02-11T04:36:02;10.90;;;6.73;;
1360;SDS011;674;45.552;-122.600;2023-02-11T04:38:31;16.60;;;5.57;;
1360;SDS011;674;45.552;-122.600;2023-02-11T04:40:59;11.30;;;4.97;;
1360;SDS011;674;45.552;-122.600;2023-02-11T04:43:27;12.50;;;5.60;;
1360;SDS011;674;45.552;-122.600;2023-02-11T04:45:56;16.50;;;5.40;;
1360;SDS011;674;45.552;-122.600;2023-02-11T04:48:25;19.30;;;5.67;;
1360;SDS011;674;45.552;-122.600;2023-02-11T04:50:54;17.37;;;5.47;;
1360;SDS011;674;45.552;-122.600;2023-02-11T04:53:22;16.30;;;6.00;;
1360;SDS011;674;45.552;-122.600;2023-02-11T04:55:50;22.93;;;5.77;;
1360;SDS011;674;45.552;-122.600;2023-02-11T04:58:19;16.57;;;7.27;;
1360;SDS011;674;45.552;-122.600;2023-02-11T05:00:47;11.13;;;5.30;;
1360;SDS011;674;45.552;-122.600;2023-02-11T05:03:16;14.53;;;6.30;;
1360;SDS011;674;45.552;-122.600;2023-02-11T05:05:45;15.13;;;5.67;;
1360;SDS011;674;45.552;-122.600;2023-02-11T05:08:13;12.50;;;5.70;;
1360;SDS011;674;45.552;-122.600;2023-02-11T05:10:44;14.70;;;5.37;;
1360;SDS011;674;45.552;-122.600;2023-02-11T05:13:14;13.53;;;5.13;;
1360;SDS011;674;45.552;-122.600;2023-02-11T05:15:42;20.57;;;6.00;;
1360;SDS011;674;45.552;-122.600;2023-02-11T05:18:11;15.87;;;5.20;;
1360;SDS011;674;45.552;-122.600;2023-02-11T05:20:41;14.47;;;5.23;;
1360;SDS011;674;45.552;-122.600;2023-02-11T05:23:10;14.43;;;5.77;;
1360;SDS011;674;45.552;-122.600;2023-02-11T05:25:39;17.50;;;6.07;;
1360;SDS011;674;45.552;-122.600;2023-02-11T05:28:07;11.73;;;5.23;;
1360;SDS011;674;45.552;-122.600;2023-02-11T05:30:38;13.47;;;5.80;;
1360;SDS011;674;45.552;-122.600;2023-02-11T05:33:07;13.10;;;5.20;;
1360;SDS011;674;45.552;-122.600;2023-02-11T05:35:35;24.33;;;7.10;;
1360;SDS011;674;45.552;-122.600;2023-02-11T05:38:04;16.63;;;6.47;;
1360;SDS011;674;45.552;-122.600;2023-02-11T05:40:32;16.63;;;5.93;;
1360;SDS011;674;45.552;-122.600;2023-02-11T05:43:00;15.13;;;5.73;;
1360;SDS011;674;45.552;-122.600;2023-02-11T05:45:29;14.53;;;6.03;;
1360;SDS011;674;45.552;-122.600;2023-02-11T05:47:57;21.20;;;5.87;;
1360;SDS011;674;45.552;-122.600;2023-02-11T05:50:26;14.60;;;5.73;;
1360;SDS011;674;45.552;-122.600;2023-02-11T05:52:54;22.03;;;6.80;;
1360;SDS011;674;45.552;-122.600;2023-02-11T05:55:23;19.83;;;7.20;;
1360;SDS011;674;45.552;-122.600;2023-02-11T05:57:51;15.63;;;6.30;;
1360;SDS011;674;45.552;-122.600;2023-02-11T06:00:20;18.20;;;6.50;;
1360;SDS011;674;45.552;-122.600;2023-02-11T06:02:48;18.90;;;6.60;;
1360;SDS011;674;45.552;-122.600;2023-02-11T06:05:17;21.57;;;7.80;;
1360;SDS011;674;45.552;-122.600;2023-02-11T06:07:46;17.70;;;8.33;;
1360;SDS011;674;45.552;-122.600;2023-02-11T06:10:14;16.60;;;6.60;;
1360;SDS011;674;45.552;-122.600;2023-02-11T06:12:43;16.27;;;6.60;;
1360;SDS011;674;45.552;-122.600;2023-02-11T06:15:11;16.77;;;6.97;;
1360;SDS011;674;45.552;-122.600;2023-02-11T06:17:40;17.70;;;7.33;;
1360;SDS011;674;45.552;-122.600;2023-02-11T06:20:09;15.47;;;6.27;;
1360;SDS011;674;45.552;-122.600;2023-02-11T06:22:38;19.83;;;7.00;;
1360;SDS011;674;45.552;-122.600;2023-02-11T06:25:07;14.83;;;6.87;;
1360;SDS011;674;45.552;-122.600;2023-02-11T06:27:37;14.97;;;7.60;;
1360;SDS011;674;45.552;-122.600;2023-02-11T06:30:06;14.63;;;7.00;;
1360;SDS011;674;45.552;-122.600;2023-02-11T06:32:35;22.37;;;6.93;;
1360;SDS011;674;45.552;-122.600;2023-02-11T06:35:10;15.53;;;7.77;;
1360;SDS011;674;45.552;-122.600;2023-02-11T06:37:40;14.90;;;7.10;;
1360;SDS011;674;45.552;-122.600;2023-02-11T06:40:10;13.40;;;6.00;;
1360;SDS011;674;45.552;-122.600;2023-02-11T06:42:38;18.17;;;6.30;;
1360;SDS011;674;45.552;-122.600;2023-02-11T06:45:07;18.50;;;6.83;;
1360;SDS011;674;45.552;-122.600;2023-02-11T06:47:37;14.13;;;6.30;;
1360;SDS011;674;45.552;-122.600;2023-02-11T06:50:09;15.53;;;6.80;;
1360;SDS011;674;45.552;-122.600;2023-02-11T06:52:39;15.83;;;6.90;;
1360;SDS011;674;45.552;-122.600;2023-02-11T06:55:07;16.23;;;7.63;;
1360;SDS011;674;45.552;-122.600;2023-02-11T06:57:36;18.93;;;6.90;;
1360;SDS011;674;45.552;-122.600;2023-02-11T07:00:05;21.67;;;6.80;;
1360;SDS011;674;45.552;-122.600;2023-02-11T07:02:34;15.53;;;6.57;;
1360;SDS011;674;45.552;-122.600;2023-02-11T07:05:04;17.33;;;8.00;;
1360;SDS011;674;45.552;-122.600;2023-02-11T07:07:33;15.70;;;6.10;;
1360;SDS011;674;45.552;-122.600;2023-02-11T07:10:02;20.03;;;6.67;;
1360;SDS011;674;45.552;-122.600;2023-02-11T07:12:32;17.47;;;6.47;;
1360;SDS011;674;45.552;-122.600;2023-02-11T07:15:00;17.40;;;6.33;;
1360;SDS011;674;45.552;-122.600;2023-02-11T07:17:29;15.40;;;6.33;;
1360;SDS011;674;45.552;-122.600;2023-02-11T07:19:57;13.47;;;6.90;;
1360;SDS011;674;45.552;-122.600;2023-02-11T07:22:25;20.00;;;6.90;;
1360;SDS011;674;45.552;-122.600;2023-02-11T07:24:54;15.33;;;6.70;;
1360;SDS011;674;45.552;-122.600;2023-02-11T07:27:22;13.43;;;5.70;;
1360;SDS011;674;45.552;-122.600;2023-02-11T07:29:51;18.67;;;7.63;;
1360;SDS011;674;45.552;-122.600;2023-02-11T07:32:19;16.27;;;5.80;;
1360;SDS011;674;45.552;-122.600;2023-02-11T07:34:48;14.40;;;6.10;;
1360;SDS011;674;45.552;-122.600;2023-02-11T07:37:16;13.80;;;6.07;;
1360;SDS011;674;45.552;-122.600;2023-02-11T07:39:45;19.97;;;6.73;;
1360;SDS011;674;45.552;-122.600;2023-02-11T07:42:13;17.73;;;7.03;;
1360;SDS011;674;45.552;-122.600;2023-02-11T07:44:42;16.47;;;6.27;;
1360;SDS011;674;45.552;-122.600;2023-02-11T07:47:10;17.27;;;6.70;;
1360;SDS011;674;45.552;-122.600;2023-02-11T07:49:38;14.53;;;6.07;;
1360;SDS011;674;45.552;-122.600;2023-02-11T07:52:07;15.70;;;6.00;;
1360;SDS011;674;45.552;-122.600;2023-02-11T07:54:35;15.67;;;7.20;;
1360;SDS011;674;45.552;-122.600;2023-02-11T07:57:04;27.60;;;6.97;;
1360;SDS011;674;45.552;-122.600;2023-02-11T07:59:32;18.97;;;6.57;;
1360;SDS011;674;45.552;-122.600;2023-02-11T08:02:01;16.73;;;7.63;;
1360;SDS011;674;45.552;-122.600;2023-02-11T08:04:29;21.23;;;6.73;;
1360;SDS011;674;45.552;-122.600;2023-02-11T08:06:58;16.97;;;6.53;;
1360;SDS011;674;45.552;-122.600;2023-02-11T08:09:26;16.43;;;6.53;;
1360;SDS011;674;45.552;-122.600;2023-02-11T08:11:55;20.50;;;6.87;;
1360;SDS011;674;45.552;-122.600;2023-02-11T08:14:23;17.77;;;7.33;;
1360;SDS011;674;45.552;-122.600;2023-02-11T08:16:53;14.48;;;6.65;;
1360;SDS011;674;45.552;-122.600;2023-02-11T08:19:21;17.83;;;6.87;;
1360;SDS011;674;45.552;-122.600;2023-02-11T08:21:51;22.93;;;7.00;;
1360;SDS011;674;45.552;-122.600;2023-02-11T08:24:23;16.73;;;6.53;;
1360;SDS011;674;45.552;-122.600;2023-02-11T08:26:51;19.07;;;7.03;;
1360;SDS011;674;45.552;-122.600;2023-02-11T08:29:19;19.42;;;6.80;;
1360;SDS011;674;45.552;-122.600;2023-02-11T08:31:48;12.57;;;6.33;;
1360;SDS011;674;45.552;-122.600;2023-02-11T08:34:16;13.60;;;5.80;;
1360;SDS011;674;45.552;-122.600;2023-02-11T08:36:45;22.05;;;6.55;;
1360;SDS011;674;45.552;-122.600;2023-02-11T08:39:15;20.60;;;6.60;;
1360;SDS011;674;45.552;-122.600;2023-02-11T08:41:47;14.98;;;6.75;;
1360;SDS011;674;45.552;-122.600;2023-02-11T08:44:17;14.10;;;6.00;;
1360;SDS011;674;45.552;-122.600;2023-02-11T08:46:47;17.70;;;6.60;;
1360;SDS011;674;45.552;-122.600;2023-02-11T08:49:16;11.57;;;7.05;;
1360;SDS011;674;45.552;-122.600;2023-02-11T08:51:44;20.07;;;6.60;;
1360;SDS011;674;45.552;-122.600;2023-02-11T08:54:14;19.87;;;6.53;;
1360;SDS011;674;45.552;-122.600;2023-02-11T08:56:42;12.90;;;5.28;;
1360;SDS011;674;45.552;-122.600;2023-02-11T08:59:13;15.75;;;5.35;;
1360;SDS011;674;45.552;-122.600;2023-02-11T09:01:43;15.30;;;6.03;;
1360;SDS011;674;45.552;-122.600;2023-02-11T09:04:13;23.55;;;6.95;;
1360;SDS011;674;45.552;-122.600;2023-02-11T09:06:42;14.02;;;6.10;;
1360;SDS011;674;45.552;-122.600;2023-02-11T09:09:11;14.13;;;5.97;;
1360;SDS011;674;45.552;-122.600;2023-02-11T09:11:41;26.00;;;6.93;;
1360;SDS011;674;45.552;-122.600;2023-02-11T09:14:20;25.33;;;8.90;;
1360;SDS011;674;45.552;-122.600;2023-02-11T09:16:49;24.73;;;6.85;;
1360;SDS011;674;45.552;-122.600;2023-02-11T09:19:20;14.15;;;5.90;;
1360;SDS011;674;45.552;-122.600;2023-02-11T09:21:49;20.40;;;7.47;;
1360;SDS011;674;45.552;-122.600;2023-02-11T09:24:18;17.15;;;6.25;;
1360;SDS011;674;45.552;-122.600;2023-02-11T09:26:46;16.60;;;5.88;;
1360;SDS011;674;45.552;-122.600;2023-02-11T09:29:15;25.23;;;7.47;;
1360;SDS011;674;45.552;-122.600;2023-02-11T09:31:44;18.63;;;8.77;;
1360;SDS011;674;45.552;-122.600;2023-02-11T09:34:13;15.93;;;6.32;;
1360;SDS011;674;45.552;-122.600;2023-02-11T09:36:42;15.30;;;5.60;;
1360;SDS011;674;45.552;-122.600;2023-02-11T09:39:12;17.98;;;5.85;;
1360;SDS011;674;45.552;-122.600;2023-02-11T09:41:50;21.05;;;7.10;;
1360;SDS011;674;45.552;-122.600;2023-02-11T09:44:28;23.02;;;7.50;;
1360;SDS011;674;45.552;-122.600;2023-02-11T09:47:03;14.80;;;5.80;;
1360;SDS011;674;45.552;-122.600;2023-02-11T09:49:41;12.95;;;6.03;;
1360;SDS011;674;45.552;-122.600;2023-02-11T09:55:03;14.40;;;5.10;;
1360;SDS011;674;45.552;-122.600;2023-02-11T09:57:39;14.10;;;5.75;;
1360;SDS011;674;45.552;-122.600;2023-02-11T10:00:18;14.75;;;5.60;;
1360;SDS011;674;45.552;-122.600;2023-02-11T10:02:55;13.52;;;5.40;;
1360;SDS011;674;45.552;-122.600;2023-02-11T10:05:38;18.67;;;6.00;;
1360;SDS011;674;45.552;-122.600;2023-02-11T10:08:19;21.30;;;6.95;;
1360;SDS011;674;45.552;-122.600;2023-02-11T10:11:07;16.85;;;6.35;;
1360;SDS011;674;45.552;-122.600;2023-02-11T10:24:56;12.23;;;6.57;;
1360;SDS011;674;45.552;-122.600;2023-02-11T10:27:32;17.13;;;6.28;;
1360;SDS011;674;45.552;-122.600;2023-02-11T10:30:05;19.67;;;5.90;;
1360;SDS011;674;45.552;-122.600;2023-02-11T10:32:47;22.20;;;5.65;;
1360;SDS011;674;45.552;-122.600;2023-02-11T10:35:20;15.40;;;5.88;;
1360;SDS011;674;45.552;-122.600;2023-02-11T10:37:50;20.17;;;6.68;;
1360;SDS011;674;45.552;-122.600;2023-02-11T10:40:20;15.20;;;5.60;;
1360;SDS011;674;45.552;-122.600;2023-02-11T10:43:25;13.77;;;5.47;;
1360;SDS011;674;45.552;-122.600;2023-02-11T10:45:48;14.40;;;5.40;;
1360;SDS011;674;45.552;-122.600;2023-02-11T10:56:46;20.00;;;5.60;;
1360;SDS011;674;45.552;-122.600;2023-02-11T11:04:41;15.32;;;5.30;;
1360;SDS011;674;45.552;-122.600;2023-02-11T11:07:21;18.77;;;5.47;;
1360;SDS011;674;45.552;-122.600;2023-02-11T11:12:33;19.63;;;8.02;;
1360;SDS011;674;45.552;-122.600;2023-02-11T11:15:23;15.70;;;5.90;;
1360;SDS011;674;45.552;-122.600;2023-02-11T11:20:56;21.33;;;5.78;;
1360;SDS011;674;45.552;-122.600;2023-02-11T11:23:34;16.95;;;5.22;;
1360;SDS011;674;45.552;-122.600;2023-02-11T11:26:08;15.50;;;5.30;;
1360;SDS011;674;45.552;-122.600;2023-02-11T11:28:39;18.42;;;6.10;;
1360;SDS011;674;45.552;-122.600;2023-02-11T11:31:21;13.32;;;5.45;;
1360;SDS011;674;45.552;-122.600;2023-02-11T11:33:54;17.10;;;6.00;;
1360;SDS011;674;45.552;-122.600;2023-02-11T11:36:37;22.17;;;6.53;;
1360;SDS011;674;45.552;-122.600;2023-02-11T11:39:21;19.27;;;5.68;;
1360;SDS011;674;45.552;-122.600;2023-02-11T11:44:29;21.58;;;5.15;;
1360;SDS011;674;45.552;-122.600;2023-02-11T11:52:39;19.05;;;5.22;;
1360;SDS011;674;45.552;-122.600;2023-02-11T11:55:21;14.88;;;5.88;;
1360;SDS011;674;45.552;-122.600;2023-02-11T11:58:13;20.30;;;6.10;;
1360;SDS011;674;45.552;-122.600;2023-02-11T12:04:12;14.80;;;5.90;;
1360;SDS011;674;45.552;-122.600;2023-02-11T12:07:01;14.05;;;5.10;;
1360;SDS011;674;45.552;-122.600;2023-02-11T12:09:36;13.68;;;5.55;;
1360;SDS011;674;45.552;-122.600;2023-02-11T12:27:06;11.65;;;4.93;;
1360;SDS011;674;45.552;-122.600;2023-02-11T12:38:07;12.88;;;4.95;;
1360;SDS011;674;45.552;-122.600;2023-02-11T12:44:24;13.38;;;4.60;;
1360;SDS011;674;45.552;-122.600;2023-02-11T12:47:10;17.40;;;6.18;;
1360;SDS011;674;45.552;-122.600;2023-02-11T12:49:51;13.73;;;6.20;;
1360;SDS011;674;45.552;-122.600;2023-02-11T12:55:18;16.75;;;9.60;;
1360;SDS011;674;45.552;-122.600;2023-02-11T12:57:50;22.45;;;8.13;;
1360;SDS011;674;45.552;-122.600;2023-02-11T13:00:25;24.40;;;6.20;;
1360;SDS011;674;45.552;-122.600;2023-02-11T13:03:39;20.30;;;7.07;;
1360;SDS011;674;45.552;-122.600;2023-02-11T13:06:16;18.48;;;7.88;;
1360;SDS011;674;45.552;-122.600;2023-02-11T13:08:52;16.67;;;5.82;;
1360;SDS011;674;45.552;-122.600;2023-02-11T13:11:27;27.20;;;7.57;;
1360;SDS011;674;45.552;-122.600;2023-02-11T13:14:01;19.02;;;7.30;;
1360;SDS011;674;45.552;-122.600;2023-02-11T13:16:38;22.33;;;12.20;;
1360;SDS011;674;45.552;-122.600;2023-02-11T13:21:58;21.90;;;7.95;;
1360;SDS011;674;45.552;-122.600;2023-02-11T13:33:15;18.02;;;10.35;;
1360;SDS011;674;45.552;-122.600;2023-02-11T13:38:29;18.58;;;10.35;;
1360;SDS011;674;45.552;-122.600;2023-02-11T13:41:00;20.50;;;9.98;;
1360;SDS011;674;45.552;-122.600;2023-02-11T13:43:34;28.92;;;10.98;;
1360;SDS011;674;45.552;-122.600;2023-02-11T13:46:07;21.40;;;10.23;;
1360;SDS011;674;45.552;-122.600;2023-02-11T13:48:45;16.67;;;10.52;;
1360;SDS011;674;45.552;-122.600;2023-02-11T13:51:35;20.02;;;10.30;;
1360;SDS011;674;45.552;-122.600;2023-02-11T13:54:07;22.63;;;10.38;;
1360;SDS011;674;45.552;-122.600;2023-02-11T13:57:13;19.33;;;9.07;;
1360;SDS011;674;45.552;-122.600;2023-02-11T13:59:47;17.70;;;8.30;;
1360;SDS011;674;45.552;-122.600;2023-02-11T14:08:23;17.37;;;8.10;;
1360;SDS011;674;45.552;-122.600;2023-02-11T14:11:06;16.83;;;8.60;;
1360;SDS011;674;45.552;-122.600;2023-02-11T14:14:23;12.18;;;7.05;;
1360;SDS011;674;45.552;-122.600;2023-02-11T14:19:35;12.85;;;7.97;;
1360;SDS011;674;45.552;-122.600;2023-02-11T14:27:23;12.95;;;6.63;;
1360;SDS011;674;45.552;-122.600;2023-02-11T14:41:23;9.52;;;5.90;;
1360;SDS011;674;45.552;-122.600;2023-02-11T14:43:54;12.93;;;7.05;;
1360;SDS011;674;45.552;-122.600;2023-02-11T14:46:30;13.85;;;6.38;;
1360;SDS011;674;45.552;-122.600;2023-02-11T14:49:00;13.43;;;6.63;;
1360;SDS011;674;45.552;-122.600;2023-02-11T14:51:34;14.40;;;5.80;;
1360;SDS011;674;45.552;-122.600;2023-02-11T14:54:12;8.98;;;5.60;;
1360;SDS011;674;45.552;-122.600;2023-02-11T14:56:44;13.25;;;7.32;;
1360;SDS011;674;45.552;-122.600;2023-02-11T14:59:20;16.10;;;7.47;;
1360;SDS011;674;45.552;-122.600;2023-02-11T15:01:50;11.82;;;6.22;;
1360;SDS011;674;45.552;-122.600;2023-02-11T15:04:30;11.02;;;7.43;;
1360;SDS011;674;45.552;-122.600;2023-02-11T15:07:03;13.33;;;5.80;;
1360;SDS011;674;45.552;-122.600;2023-02-11T15:09:41;25.88;;;9.20;;
1360;SDS011;674;45.552;-122.600;2023-02-11T15:14:45;16.33;;;7.20;;
1360;SDS011;674;45.552;-122.600;2023-02-11T15:17:18;19.77;;;8.32;;
1360;SDS011;674;45.552;-122.600;2023-02-11T15:19:54;18.30;;;9.20;;
1360;SDS011;674;45.552;-122.600;2023-02-11T15:22:25;13.50;;;7.35;;
1360;SDS011;674;45.552;-122.600;2023-02-11T15:25:00;13.05;;;7.47;;
1360;SDS011;674;45.552;-122.600;2023-02-11T15:27:43;11.85;;;8.07;;
1360;SDS011;674;45.552;-122.600;2023-02-11T15:32:49;16.00;;;9.80;;
1360;SDS011;674;45.552;-122.600;2023-02-11T15:35:59;13.82;;;7.32;;
1360;SDS011;674;45.552;-122.600;2023-02-11T15:38:20;9.23;;;7.35;;
1360;SDS011;674;45.552;-122.600;2023-02-11T15:40:54;18.95;;;8.68;;
1360;SDS011;674;45.552;-122.600;2023-02-11T15:43:43;15.73;;;7.20;;
1360;SDS011;674;45.552;-122.600;2023-02-11T15:46:15;10.60;;;6.77;;
1360;SDS011;674;45.552;-122.600;2023-02-11T15:48:50;9.70;;;6.68;;
1360;SDS011;674;45.552;-122.600;2023-02-11T15:51:21;13.15;;;7.05;;
1360;SDS011;674;45.552;-122.600;2023-02-11T15:53:55;16.07;;;7.53;;
1360;SDS011;674;45.552;-122.600;2023-02-11T15:56:37;18.48;;;9.45;;
1360;SDS011;674;45.552;-122.600;2023-02-11T15:59:32;12.43;;;8.17;;
1360;SDS011;674;45.552;-122.600;2023-02-11T16:02:08;29.87;;;9.87;;
1360;SDS011;674;45.552;-122.600;2023-02-11T16:04:49;20.83;;;8.05;;
1360;SDS011;674;45.552;-122.600;2023-02-11T16:10:34;19.25;;;9.85;;
1360;SDS011;674;45.552;-122.600;2023-02-11T16:13:15;14.40;;;8.75;;
1360;SDS011;674;45.552;-122.600;2023-02-11T16:16:02;17.10;;;7.93;;
1360;SDS011;674;45.552;-122.600;2023-02-11T16:18:33;34.63;;;12.85;;
1360;SDS011;674;45.552;-122.600;2023-02-11T16:21:13;26.03;;;9.07;;
1360;SDS011;674;45.552;-122.600;2023-02-11T16:23:53;31.77;;;9.97;;
1360;SDS011;674;45.552;-122.600;2023-02-11T16:26:25;54.77;;;10.77;;
1360;SDS011;674;45.552;-122.600;2023-02-11T16:29:01;31.93;;;10.90;;
1360;SDS011;674;45.552;-122.600;2023-02-11T16:31:37;20.40;;;8.37;;
1360;SDS011;674;45.552;-122.600;2023-02-11T16:34:14;23.10;;;8.63;;
1360;SDS011;674;45.552;-122.600;2023-02-11T16:36:45;13.90;;;7.93;;
1360;SDS011;674;45.552;-122.600;2023-02-11T16:39:15;13.60;;;7.60;;
1360;SDS011;674;45.552;-122.600;2023-02-11T16:41:44;12.00;;;6.43;;
1360;SDS011;674;45.552;-122.600;2023-02-11T16:44:13;12.40;;;6.60;;
1360;SDS011;674;45.552;-122.600;2023-02-11T16:46:41;12.03;;;6.53;;
1360;SDS011;674;45.552;-122.600;2023-02-11T16:49:20;17.37;;;6.33;;
1360;SDS011;674;45.552;-122.600;2023-02-11T16:51:53;11.97;;;5.97;;
1360;SDS011;674;45.552;-122.600;2023-02-11T16:54:23;10.53;;;5.40;;
1360;SDS011;674;45.552;-122.600;2023-02-11T16:56:51;11.53;;;5.20;;
1360;SDS011;674;45.552;-122.600;2023-02-11T16:59:20;7.40;;;4.23;;
1360;SDS011;674;45.552;-122.600;2023-02-11T17:01:48;7.20;;;3.80;;
1360;SDS011;674;45.552;-122.600;2023-02-11T17:04:19;11.17;;;4.07;;
1360;SDS011;674;45.552;-122.600;2023-02-11T17:06:51;6.13;;;3.83;;
1360;SDS011;674;45.552;-122.600;2023-02-11T17:09:24;7.97;;;4.30;;
1360;SDS011;674;45.552;-122.600;2023-02-11T17:11:56;8.87;;;3.77;;
1360;SDS011;674;45.552;-122.600;2023-02-11T17:14:24;7.20;;;4.33;;
1360;SDS011;674;45.552;-122.600;2023-02-11T17:16:53;6.43;;;3.60;;
1360;SDS011;674;45.552;-122.600;2023-02-11T17:19:22;9.83;;;3.50;;
1360;SDS011;674;45.552;-122.600;2023-02-11T17:21:51;8.87;;;3.40;;
1360;SDS011;674;45.552;-122.600;2023-02-11T17:24:20;10.47;;;4.90;;
1360;SDS011;674;45.552;-122.600;2023-02-11T17:26:49;5.93;;;3.37;;
1360;SDS011;674;45.552;-122.600;2023-02-11T17:29:19;7.87;;;3.80;;
1360;SDS011;674;45.552;-122.600;2023-02-11T17:31:49;9.13;;;3.60;;
1360;SDS011;674;45.552;-122.600;2023-02-11T17:34:19;7.13;;;4.00;;
1360;SDS011;674;45.552;-122.600;2023-02-11T17:36:48;9.73;;;3.80;;
1360;SDS011;674;45.552;-122.600;2023-02-11T17:39:18;6.80;;;3.70;;
1360;SDS011;674;45.552;-122.600;2023-02-11T17:41:47;9.60;;;4.13;;
1360;SDS011;674;45.552;-122.600;2023-02-11T17:44:15;6.07;;;3.90;;
1360;SDS011;674;45.552;-122.600;2023-02-11T17:46:44;6.20;;;2.90;;
1360;SDS011;674;45.552;-122.600;2023-02-11T17:49:12;6.30;;;3.03;;
1360;SDS011;674;45.552;-122.600;2023-02-11T17:51:42;4.60;;;2.97;;
1360;SDS011;674;45.552;-122.600;2023-02-11T17:54:12;8.40;;;3.50;;